createdAt,value
2016-11-27T10:18:28.257Z,8.18
2016-11-27T10:19:28.255Z,8.15
2016-11-27T10:20:28.263Z,8.13
2016-11-27T10:21:28.272Z,8.2
2016-11-27T10:22:28.281Z,8.18
2016-11-27T10:23:28.211Z,8.18
2016-11-27T10:24:28.298Z,8.2
2016-11-27T10:25:28.314Z,8.19
2016-11-27T10:26:28.323Z,8.19
2016-11-27T10:27:28.330Z,8.24
2016-11-27T10:28:28.339Z,8.13
2016-11-27T10:29:28.342Z,8.16
2016-11-27T10:30:28.346Z,8.16
2016-11-27T10:31:28.356Z,8.18
2016-11-27T10:32:28.388Z,8.19
2016-11-27T10:33:28.396Z,8.2
2016-11-27T10:34:28.404Z,8.18
2016-11-27T10:35:28.406Z,8.23
2016-11-27T10:36:28.415Z,8.26
2016-11-27T10:37:28.361Z,8.27
2016-11-27T10:38:28.371Z,8.24
2016-11-27T10:39:28.381Z,8.26
2016-11-27T10:40:28.394Z,8.16
2016-11-27T10:41:28.407Z,8.23
2016-11-27T10:42:28.419Z,8.36
2016-11-27T10:43:28.458Z,8.23
2016-11-27T10:44:28.450Z,8.31
2016-11-27T10:45:28.460Z,8.19
2016-11-27T10:46:28.475Z,8.16
2016-11-27T10:47:28.492Z,8.34
2016-11-27T10:48:28.503Z,8.34
2016-11-27T10:49:28.508Z,8.33
2016-11-27T10:50:28.537Z,8.31
2016-11-27T10:51:28.540Z,8.28
2016-11-27T10:52:28.553Z,8.33
2016-11-27T10:53:28.571Z,8.37
2016-11-27T10:54:28.586Z,8.38
2016-11-27T10:55:28.595Z,8.45
2016-11-27T10:56:28.613Z,8.45
2016-11-27T10:57:28.625Z,8.45
2016-11-27T10:58:28.636Z,8.46
2016-11-27T10:59:28.656Z,8.46
2016-11-27T11:00:28.669Z,8.48
2016-11-27T11:01:28.684Z,8.52
2016-11-27T11:02:28.695Z,8.52
2016-11-27T11:03:28.710Z,8.52
2016-11-27T11:04:28.726Z,8.52
2016-11-27T11:05:28.744Z,8.48
2016-11-27T11:06:28.763Z,8.51
2016-11-27T11:07:28.769Z,8.53
2016-11-27T11:08:28.783Z,8.51
2016-11-27T11:09:28.803Z,8.49
2016-11-27T11:10:28.839Z,8.51
2016-11-27T11:11:28.844Z,8.46
2016-11-27T11:12:28.846Z,8.51
2016-11-27T11:13:28.860Z,8.52
2016-11-27T11:14:28.874Z,8.52
2016-11-27T11:15:28.887Z,8.53
2016-11-27T11:16:28.901Z,8.49
2016-11-27T11:17:28.924Z,8.6
2016-11-27T11:18:28.929Z,8.67
2016-11-27T11:19:28.946Z,8.58
2016-11-27T11:20:28.961Z,8.55
2016-11-27T11:21:28.976Z,8.64
2016-11-27T11:22:28.995Z,8.7
2016-11-27T11:23:29.007Z,8.71
2016-11-27T11:24:29.020Z,8.74
2016-11-27T11:25:29.037Z,8.7
2016-11-27T11:26:29.053Z,8.79
2016-11-27T11:27:29.069Z,8.78
2016-11-27T11:28:29.084Z,8.76
2016-11-27T11:29:29.094Z,8.85
2016-11-27T11:30:29.426Z,8.79
2016-11-27T11:31:29.132Z,8.89
2016-11-27T11:32:29.144Z,8.87
2016-11-27T11:33:29.157Z,8.88
2016-11-27T11:34:29.180Z,8.95
2016-11-27T11:35:29.185Z,8.99
2016-11-27T11:36:29.202Z,9
2016-11-27T11:37:29.218Z,8.99
2016-11-27T11:38:29.237Z,9.13
2016-11-27T11:39:29.252Z,9.06
2016-11-27T11:40:29.267Z,9.04
2016-11-27T11:41:29.277Z,9.13
2016-11-27T11:42:29.495Z,9.11
2016-11-27T11:43:29.313Z,9.13
2016-11-27T11:44:29.324Z,9.13
2016-11-27T11:45:29.343Z,9.18
2016-11-27T11:46:29.354Z,9.18
2016-11-27T11:47:29.375Z,9.14
2016-11-27T11:48:29.412Z,9.18
2016-11-27T11:49:29.403Z,9.18
2016-11-27T11:50:29.423Z,9.23
2016-11-27T11:51:29.438Z,9.25
2016-11-27T11:52:29.456Z,9.23
2016-11-27T11:53:29.464Z,9.23
2016-11-27T11:54:29.481Z,9.29
2016-11-27T11:55:29.498Z,9.31
2016-11-27T11:56:29.545Z,9.34
2016-11-27T11:57:29.536Z,9.29
2016-11-27T11:58:29.548Z,9.37
2016-11-27T11:59:29.565Z,9.47
2016-11-27T12:00:29.577Z,9.4
2016-11-27T12:01:29.620Z,9.44
2016-11-27T12:02:29.612Z,9.4
2016-11-27T12:03:29.628Z,9.43
2016-11-27T12:04:29.643Z,9.4
2016-11-27T12:05:29.654Z,9.48
2016-11-27T12:06:29.671Z,9.47
2016-11-27T12:07:29.688Z,9.41
2016-11-27T12:08:29.708Z,9.4
2016-11-27T12:09:29.719Z,9.43
2016-11-27T12:10:29.730Z,9.43
2016-11-27T12:11:29.752Z,9.4
2016-11-27T12:12:29.773Z,9.44
2016-11-27T12:13:29.787Z,9.4
2016-11-27T12:14:29.802Z,9.47
2016-11-27T12:15:29.815Z,9.47
2016-11-27T12:16:29.839Z,9.4
2016-11-27T12:17:29.845Z,9.41
2016-11-27T12:18:29.986Z,9.37
2016-11-27T12:19:29.987Z,9.4
2016-11-27T12:20:29.988Z,9.34
2016-11-27T12:21:30.149Z,9.36
2016-11-27T12:22:30.157Z,9.29
2016-11-27T12:23:30.166Z,9.32
2016-11-27T12:24:30.177Z,9.36
2016-11-27T12:25:30.210Z,9.34
2016-11-27T12:26:30.188Z,9.4
2016-11-27T12:27:30.198Z,9.4
2016-11-27T12:28:30.205Z,9.37
2016-11-27T12:29:30.213Z,9.4
2016-11-27T12:30:30.221Z,9.41
2016-11-27T12:31:30.293Z,9.47
2016-11-27T12:32:30.272Z,9.48
2016-11-27T12:33:30.280Z,9.44
2016-11-27T12:34:30.288Z,9.46
2016-11-27T12:35:30.286Z,9.44
2016-11-27T12:36:30.296Z,9.54
2016-11-27T12:37:30.305Z,9.51
2016-11-27T12:38:30.316Z,9.48
2016-11-27T12:39:30.323Z,9.44
2016-11-27T12:40:30.341Z,9.48
2016-11-27T12:41:30.330Z,9.54
2016-11-27T12:42:30.337Z,9.58
2016-11-27T12:43:30.307Z,9.59
2016-11-27T12:44:30.321Z,9.55
2016-11-27T12:45:30.335Z,9.59
2016-11-27T12:46:30.323Z,9.68
2016-11-27T12:47:30.332Z,9.61
2016-11-27T12:48:30.348Z,9.56
2016-11-27T12:49:30.373Z,9.74
2016-11-27T12:50:30.381Z,9.68
2016-11-27T12:51:30.434Z,9.61
2016-11-27T12:52:30.463Z,9.66
2016-11-27T12:53:30.430Z,9.68
2016-11-27T12:54:30.449Z,9.65
2016-11-27T12:55:30.468Z,9.73
2016-11-27T12:56:30.480Z,9.73
2016-11-27T12:57:30.493Z,9.73
2016-11-27T12:58:30.509Z,9.68
2016-11-27T12:59:30.554Z,9.68
2016-11-27T13:00:30.549Z,9.72
2016-11-27T13:01:30.559Z,9.64
2016-11-27T13:02:30.608Z,9.69
2016-11-27T13:03:30.594Z,9.68
2016-11-27T13:04:30.612Z,9.69
2016-11-27T13:05:30.619Z,9.61
2016-11-27T13:06:30.639Z,9.74
2016-11-27T13:07:30.658Z,9.65
2016-11-27T13:08:30.671Z,9.68
2016-11-27T13:09:30.690Z,9.72
2016-11-27T13:10:30.708Z,9.68
2016-11-27T13:11:30.724Z,9.69
2016-11-27T13:12:30.737Z,9.64
2016-11-27T13:13:30.753Z,9.66
2016-11-27T13:14:30.778Z,9.72
2016-11-27T13:15:30.783Z,9.64
2016-11-27T13:16:30.798Z,9.66
2016-11-27T13:17:30.821Z,9.68
2016-11-27T13:18:30.839Z,9.69
2016-11-27T13:19:30.852Z,9.66
2016-11-27T13:20:30.870Z,9.64
2016-11-27T13:21:30.885Z,9.72
2016-11-27T13:22:30.904Z,9.66
2016-11-27T13:23:30.915Z,9.66
2016-11-27T13:24:30.934Z,9.68
2016-11-27T13:25:30.970Z,9.68
2016-11-27T13:26:30.966Z,9.65
2016-11-27T13:27:30.996Z,9.61
2016-11-27T13:28:31.014Z,9.58
2016-11-27T13:29:31.021Z,9.61
2016-11-27T13:30:31.035Z,9.56
2016-11-27T13:31:31.064Z,9.58
2016-11-27T13:32:31.065Z,9.62
2016-11-27T13:33:31.083Z,9.54
2016-11-27T13:34:31.102Z,9.48
2016-11-27T13:35:31.123Z,9.47
2016-11-27T13:36:31.133Z,9.44
2016-11-27T13:37:31.148Z,9.46
2016-11-27T13:38:31.177Z,9.47
2016-11-27T13:39:31.189Z,9.41
2016-11-27T13:40:31.199Z,9.46
2016-11-27T13:41:31.211Z,9.46
2016-11-27T13:42:31.234Z,9.4
2016-11-27T13:43:31.352Z,9.37
2016-11-27T13:44:31.264Z,9.32
2016-11-27T13:45:31.276Z,9.29
2016-11-27T13:46:31.293Z,9.25
2016-11-27T13:47:31.636Z,9.31
2016-11-27T13:48:31.324Z,9.21
2016-11-27T13:49:31.342Z,9.29
2016-11-27T13:50:31.363Z,9.25
2016-11-27T13:51:31.380Z,9.26
2016-11-27T13:52:31.391Z,9.21
2016-11-27T13:53:31.411Z,9.18
2016-11-27T13:54:31.424Z,9.22
2016-11-27T13:55:31.448Z,9.18
2016-11-27T13:56:31.460Z,9.13
2016-11-27T13:57:31.479Z,9.19
2016-11-27T13:58:31.490Z,9.19
2016-11-27T13:59:31.508Z,9.13
2016-11-27T14:00:31.530Z,9.11
2016-11-27T14:01:31.542Z,9.08
2016-11-27T14:02:31.561Z,9.04
2016-11-27T14:03:31.568Z,9.03
2016-11-27T14:04:31.588Z,9.04
2016-11-27T14:05:31.619Z,9.03
2016-11-27T14:06:31.624Z,9.02
2016-11-27T14:07:31.638Z,9.03
2016-11-27T14:08:31.659Z,8.97
2016-11-27T14:09:31.670Z,8.97
2016-11-27T14:10:31.684Z,9.03
2016-11-27T14:11:31.702Z,9
2016-11-27T14:12:31.721Z,9.02
2016-11-27T14:13:31.733Z,8.97
2016-11-27T14:14:31.749Z,8.95
2016-11-27T14:15:31.769Z,8.99
2016-11-27T14:16:31.784Z,8.91
2016-11-27T14:17:31.803Z,8.85
2016-11-27T14:18:31.812Z,8.89
2016-11-27T14:19:31.834Z,8.88
2016-11-27T14:20:31.962Z,8.94
2016-11-27T14:21:31.974Z,8.88
2016-11-27T14:22:31.969Z,8.81
2016-11-27T14:23:31.987Z,8.78
2016-11-27T14:24:32.117Z,8.74
2016-11-27T14:25:32.131Z,8.84
2016-11-27T14:26:32.130Z,8.85
2016-11-27T14:27:32.141Z,8.81
2016-11-27T14:28:32.282Z,8.84
2016-11-27T14:29:32.158Z,8.73
2016-11-27T14:30:32.166Z,8.84
2016-11-27T14:31:32.175Z,8.79
2016-11-27T14:32:32.172Z,8.78
2016-11-27T14:33:32.396Z,8.82
2016-11-27T14:34:32.220Z,8.79
2016-11-27T14:35:32.199Z,8.73
2016-11-27T14:36:32.207Z,8.81
2016-11-27T14:37:32.247Z,8.79
2016-11-27T14:38:32.320Z,8.82
2016-11-27T14:39:32.262Z,8.7
2016-11-27T14:40:32.278Z,8.7
2016-11-27T14:41:32.271Z,8.71
2016-11-27T14:42:32.280Z,8.78
2016-11-27T14:43:32.362Z,8.78
2016-11-27T14:44:32.305Z,8.76
2016-11-27T14:45:32.344Z,8.76
2016-11-27T14:46:32.350Z,8.73
2016-11-27T14:47:32.350Z,8.69
2016-11-27T14:48:32.406Z,8.71
2016-11-27T14:49:32.307Z,8.7
2016-11-27T14:50:32.322Z,8.79
2016-11-27T14:51:32.339Z,8.7
2016-11-27T14:52:32.353Z,8.67
2016-11-27T14:53:32.375Z,8.66
2016-11-27T14:54:32.381Z,8.67
2016-11-27T14:55:32.401Z,8.74
2016-11-27T14:56:32.439Z,8.61
2016-11-27T14:57:32.433Z,8.69
2016-11-27T14:58:32.447Z,8.56
2016-11-27T14:59:32.465Z,8.56
2016-11-27T15:00:32.479Z,8.61
2016-11-27T15:01:32.495Z,8.58
2016-11-27T15:02:32.506Z,8.53
2016-11-27T15:03:32.526Z,8.61
2016-11-27T15:04:32.541Z,8.51
2016-11-27T15:05:32.560Z,8.51
2016-11-27T15:06:32.572Z,8.46
2016-11-27T15:07:32.589Z,8.51
2016-11-27T15:08:32.611Z,8.46
2016-11-27T15:09:32.621Z,8.38
2016-11-27T15:10:32.645Z,8.41
2016-11-27T15:11:32.654Z,8.44
2016-11-27T15:12:32.665Z,8.38
2016-11-27T15:13:32.682Z,8.34
2016-11-27T15:14:32.703Z,8.36
2016-11-27T15:15:32.713Z,8.37
2016-11-27T15:16:32.736Z,8.34
2016-11-27T15:17:32.751Z,8.3
2016-11-27T15:18:32.764Z,8.33
2016-11-27T15:19:32.779Z,8.37
2016-11-27T15:20:32.792Z,8.2
2016-11-27T15:21:32.809Z,8.2
2016-11-27T15:22:32.824Z,8.23
2016-11-27T15:23:32.838Z,8.2
2016-11-27T15:24:32.857Z,8.13
2016-11-27T15:25:32.870Z,8.18
2016-11-27T15:26:32.885Z,8.15
2016-11-27T15:27:32.902Z,8.15
2016-11-27T15:28:32.913Z,8.18
2016-11-27T15:29:32.970Z,8.08
2016-11-27T15:30:32.950Z,8.08
2016-11-27T15:31:32.962Z,8.09
2016-11-27T15:32:32.979Z,8.12
2016-11-27T15:33:33.029Z,8.1
2016-11-27T15:34:33.064Z,8.15
2016-11-27T15:35:33.030Z,8.05
2016-11-27T15:36:33.040Z,8.03
2016-11-27T15:37:33.087Z,8
2016-11-27T15:38:33.077Z,7.98
2016-11-27T15:39:33.087Z,8
2016-11-27T15:40:33.102Z,7.98
2016-11-27T15:41:33.123Z,8
2016-11-27T15:42:33.137Z,8.01
2016-11-27T15:43:33.181Z,7.94
2016-11-27T15:44:33.167Z,8
2016-11-27T15:45:33.178Z,7.94
2016-11-27T15:46:33.197Z,7.95
2016-11-27T15:47:33.215Z,7.91
2016-11-27T15:48:33.225Z,7.98
2016-11-27T15:49:33.246Z,7.88
2016-11-27T15:50:33.257Z,7.94
2016-11-27T15:51:33.278Z,7.93
2016-11-27T15:52:33.285Z,7.9
2016-11-27T15:53:33.313Z,7.94
2016-11-27T15:54:33.328Z,7.94
2016-11-27T15:55:33.338Z,7.94
2016-11-27T15:56:33.347Z,7.94
2016-11-27T15:57:33.367Z,7.87
2016-11-27T15:58:33.418Z,7.94
2016-11-27T15:59:33.394Z,7.88
2016-11-27T16:00:33.411Z,7.9
2016-11-27T16:01:33.441Z,7.85
2016-11-27T16:02:33.442Z,7.93
2016-11-27T16:03:33.455Z,7.88
2016-11-27T16:04:33.472Z,7.77
2016-11-27T16:05:33.499Z,7.79
2016-11-27T16:06:33.503Z,7.77
2016-11-27T16:07:33.515Z,7.85
2016-11-27T16:08:33.531Z,7.8
2016-11-27T16:09:33.544Z,7.8
2016-11-27T16:10:33.564Z,7.79
2016-11-27T16:11:33.583Z,7.76
2016-11-27T16:12:33.597Z,7.79
2016-11-27T16:13:33.601Z,7.76
2016-11-27T16:14:33.624Z,7.75
2016-11-27T16:15:33.635Z,7.73
2016-11-27T16:16:33.653Z,7.75
2016-11-27T16:17:33.668Z,7.75
2016-11-27T16:18:33.688Z,7.69
2016-11-27T16:19:33.694Z,7.7
2016-11-27T16:20:33.714Z,7.75
2016-11-27T16:21:33.729Z,7.7
2016-11-27T16:22:33.746Z,7.61
2016-11-27T16:23:33.756Z,7.7
2016-11-27T16:24:33.774Z,7.69
2016-11-27T16:25:33.788Z,7.66
2016-11-27T16:26:33.806Z,7.67
2016-11-27T16:27:33.819Z,7.7
2016-11-27T16:28:33.838Z,7.63
2016-11-27T16:29:33.849Z,7.69
2016-11-27T16:30:33.864Z,7.6
2016-11-27T16:31:33.879Z,7.61
2016-11-27T16:32:33.895Z,7.57
2016-11-27T16:33:33.903Z,7.66
2016-11-27T16:34:33.923Z,7.47
2016-11-27T16:35:33.943Z,7.54
2016-11-27T16:36:33.949Z,7.53
2016-11-27T16:37:33.965Z,7.58
2016-11-27T16:38:33.982Z,7.51
2016-11-27T16:39:33.995Z,7.48
2016-11-27T16:40:34.015Z,7.5
2016-11-27T16:41:34.025Z,7.5
2016-11-27T16:42:34.040Z,7.43
2016-11-27T16:43:34.064Z,7.51
2016-11-27T16:44:34.076Z,7.48
2016-11-27T16:45:34.099Z,7.48
2016-11-27T16:46:34.104Z,7.45
2016-11-27T16:47:34.120Z,7.39
2016-11-27T16:48:34.131Z,7.42
2016-11-27T16:49:34.152Z,7.47
2016-11-27T16:50:34.163Z,7.42
2016-11-27T16:51:34.172Z,7.39
2016-11-27T16:52:34.193Z,7.38
2016-11-27T16:53:34.203Z,7.36
2016-11-27T16:54:34.220Z,7.33
2016-11-27T16:55:34.233Z,7.25
2016-11-27T16:56:34.261Z,7.24
2016-11-27T16:57:34.266Z,7.24
2016-11-27T16:58:34.285Z,7.31
2016-11-27T16:59:34.293Z,7.31
2016-11-27T17:00:34.313Z,7.31
2016-11-27T17:01:34.322Z,7.31
2016-11-27T17:02:34.342Z,7.25
2016-11-27T17:03:34.357Z,7.2
2016-11-27T17:04:34.375Z,7.23
2016-11-27T17:05:34.402Z,7.15
2016-11-27T17:06:34.402Z,7.23
2016-11-27T17:07:34.412Z,7.17
2016-11-27T17:08:34.426Z,7.2
2016-11-27T17:09:34.462Z,7.17
2016-11-27T17:10:34.460Z,7.23
2016-11-27T17:11:34.469Z,7.18
2016-11-27T17:12:34.500Z,7.15
2016-11-27T17:13:34.497Z,7.15
2016-11-27T17:14:34.514Z,7.13
2016-11-27T17:15:34.539Z,7.2
2016-11-27T17:16:34.550Z,7.17
2016-11-27T17:17:34.552Z,7.17
2016-11-27T17:18:34.572Z,7.15
2016-11-27T17:19:34.586Z,7.2
2016-11-27T17:20:34.606Z,7.11
2016-11-27T17:21:34.615Z,7.14
2016-11-27T17:22:34.631Z,7.07
2016-11-27T17:23:34.651Z,7.1
2016-11-27T17:24:34.662Z,7.1
2016-11-27T17:25:34.676Z,7.02
2016-11-27T17:26:34.688Z,7.06
2016-11-27T17:27:34.706Z,7.03
2016-11-27T17:28:34.720Z,7.1
2016-11-27T17:29:34.727Z,7.06
2016-11-27T17:30:34.747Z,7.06
2016-11-27T17:31:34.765Z,7.02
2016-11-27T17:32:34.776Z,7.14
2016-11-27T17:33:34.787Z,7.13
2016-11-27T17:34:34.809Z,7.03
2016-11-27T17:35:34.823Z,7.02
2016-11-27T17:36:34.833Z,7.02
2016-11-27T17:37:34.846Z,7.1
2016-11-27T17:38:34.860Z,7.07
2016-11-27T17:39:34.882Z,6.99
2016-11-27T17:40:34.920Z,6.99
2016-11-27T17:41:34.913Z,7
2016-11-27T17:42:34.916Z,7.07
2016-11-27T17:43:34.935Z,6.97
2016-11-27T17:44:34.947Z,7.02
2016-11-27T17:45:34.959Z,6.92
2016-11-27T17:46:34.982Z,6.92
2016-11-27T17:47:34.988Z,6.92
2016-11-27T17:48:35.013Z,7.05
2016-11-27T17:49:35.017Z,6.95
2016-11-27T17:50:35.040Z,6.92
2016-11-27T17:51:35.045Z,6.95
2016-11-27T17:52:35.066Z,6.95
2016-11-27T17:53:35.075Z,7
2016-11-27T17:54:35.088Z,6.95
2016-11-27T17:55:35.102Z,7.03
2016-11-27T17:56:35.114Z,7.06
2016-11-27T17:57:35.131Z,7.02
2016-11-27T17:58:35.155Z,6.99
2016-11-27T17:59:35.162Z,7.05
2016-11-27T18:00:35.178Z,7.11
2016-11-27T18:01:35.191Z,7.02
2016-11-27T18:02:35.208Z,7.03
2016-11-27T18:03:35.219Z,7.05
2016-11-27T18:04:35.236Z,6.92
2016-11-27T18:05:35.244Z,7.05
2016-11-27T18:06:35.259Z,6.88
2016-11-27T18:07:35.280Z,6.92
2016-11-27T18:08:35.285Z,6.92
2016-11-27T18:09:35.308Z,6.88
2016-11-27T18:10:35.319Z,6.92
2016-11-27T18:11:35.332Z,6.92
2016-11-27T18:12:35.346Z,6.92
2016-11-27T18:13:35.362Z,6.85
2016-11-27T18:14:35.377Z,6.89
2016-11-27T18:15:35.387Z,6.79
2016-11-27T18:16:35.402Z,6.84
2016-11-27T18:17:35.416Z,6.82
2016-11-27T18:18:35.463Z,6.89
2016-11-27T18:19:35.444Z,6.82
2016-11-27T18:20:35.469Z,6.79
2016-11-27T18:21:35.472Z,6.79
2016-11-27T18:22:35.485Z,6.78
2016-11-27T18:23:35.507Z,6.77
2016-11-27T18:24:35.519Z,6.75
2016-11-27T18:25:35.531Z,6.81
2016-11-27T18:26:35.544Z,6.75
2016-11-27T18:27:35.555Z,6.77
2016-11-27T18:28:35.571Z,6.75
2016-11-27T18:29:35.586Z,6.72
2016-11-27T18:30:35.599Z,6.74
2016-11-27T18:31:35.615Z,6.75
2016-11-27T18:32:35.632Z,6.75
2016-11-27T18:33:35.643Z,6.79
2016-11-27T18:34:35.654Z,6.75
2016-11-27T18:35:35.679Z,6.66
2016-11-27T18:36:35.683Z,6.66
2016-11-27T18:37:35.699Z,6.72
2016-11-27T18:38:35.714Z,6.78
2016-11-27T18:39:35.728Z,6.74
2016-11-27T18:40:35.741Z,6.67
2016-11-27T18:41:35.763Z,6.7
2016-11-27T18:42:35.776Z,6.69
2016-11-27T18:43:35.782Z,6.74
2016-11-27T18:44:35.795Z,6.69
2016-11-27T18:45:35.809Z,6.77
2016-11-27T18:46:35.826Z,6.63
2016-11-27T18:47:35.841Z,6.66
2016-11-27T18:48:35.850Z,6.59
2016-11-27T18:49:35.864Z,6.6
2016-11-27T18:50:35.879Z,6.64
2016-11-27T18:51:35.896Z,6.59
2016-11-27T18:52:35.908Z,6.62
2016-11-27T18:53:35.918Z,6.56
2016-11-27T18:54:35.939Z,6.72
2016-11-27T18:55:35.950Z,6.62
2016-11-27T18:56:35.968Z,6.62
2016-11-27T18:57:35.982Z,6.62
2016-11-27T18:58:35.998Z,6.77
2016-11-27T18:59:36.005Z,6.66
2016-11-27T19:00:36.029Z,6.67
2016-11-27T19:01:36.045Z,6.66
2016-11-27T19:02:36.049Z,6.6
2016-11-27T19:03:36.077Z,6.7
2016-11-27T19:04:36.081Z,6.62
2016-11-27T19:05:36.093Z,6.63
2016-11-27T19:06:36.102Z,6.6
2016-11-27T19:07:36.140Z,6.7
2016-11-27T19:08:36.137Z,6.62
2016-11-27T19:09:36.143Z,6.56
2016-11-27T19:10:36.159Z,6.6
2016-11-27T19:11:36.169Z,6.62
2016-11-27T19:12:36.185Z,6.57
2016-11-27T19:13:36.201Z,6.6
2016-11-27T19:14:36.209Z,6.51
2016-11-27T19:15:36.235Z,6.48
2016-11-27T19:16:36.240Z,6.59
2016-11-27T19:17:36.258Z,6.56
2016-11-27T19:18:36.273Z,6.54
2016-11-27T19:19:36.289Z,6.57
2016-11-27T19:20:36.298Z,6.56
2016-11-27T19:21:36.317Z,6.52
2016-11-27T19:22:36.365Z,6.59
2016-11-27T19:23:36.336Z,6.49
2016-11-27T19:24:36.690Z,6.54
2016-11-27T19:25:36.365Z,6.57
2016-11-27T19:26:36.380Z,6.48
2016-11-27T19:27:36.394Z,6.46
2016-11-27T19:28:36.412Z,6.48
2016-11-27T19:29:36.425Z,6.48
2016-11-27T19:30:36.436Z,6.44
2016-11-27T19:31:36.454Z,6.35
2016-11-27T19:32:36.467Z,6.39
2016-11-27T19:33:36.473Z,6.33
2016-11-27T19:34:36.495Z,6.33
2016-11-27T19:35:36.502Z,6.39
2016-11-27T19:36:36.516Z,6.35
2016-11-27T19:37:36.525Z,6.36
2016-11-27T19:38:36.547Z,6.38
2016-11-27T19:39:36.557Z,6.33
2016-11-27T19:40:36.574Z,6.36
2016-11-27T19:41:36.583Z,6.36
2016-11-27T19:42:36.610Z,6.31
2016-11-27T19:43:36.611Z,6.36
2016-11-27T19:44:36.626Z,6.36
2016-11-27T19:45:36.665Z,6.38
2016-11-27T19:46:36.653Z,6.33
2016-11-27T19:47:36.673Z,6.35
2016-11-27T19:48:36.677Z,6.36
2016-11-27T19:49:37.012Z,6.3
2016-11-27T19:50:36.712Z,6.31
2016-11-27T19:51:36.723Z,6.26
2016-11-27T19:52:36.734Z,6.28
2016-11-27T19:53:36.752Z,6.27
2016-11-27T19:54:36.760Z,6.31
2016-11-27T19:55:36.774Z,6.3
2016-11-27T19:56:36.798Z,6.28
2016-11-27T19:57:36.803Z,6.24
2016-11-27T19:58:36.815Z,6.26
2016-11-27T19:59:36.839Z,6.27
2016-11-27T20:00:36.844Z,6.33
2016-11-27T20:01:36.853Z,6.27
2016-11-27T20:02:36.872Z,6.27
2016-11-27T20:03:36.879Z,6.27
2016-11-27T20:04:36.905Z,6.28
2016-11-27T20:05:36.908Z,6.33
2016-11-27T20:06:36.921Z,6.28
2016-11-27T20:07:36.937Z,6.28
2016-11-27T20:08:36.946Z,6.24
2016-11-27T20:09:36.962Z,6.31
2016-11-27T20:10:36.973Z,6.24
2016-11-27T20:11:36.989Z,6.28
2016-11-27T20:12:37.005Z,6.31
2016-11-27T20:13:37.014Z,6.26
2016-11-27T20:14:37.030Z,6.22
2016-11-27T20:15:37.039Z,6.24
2016-11-27T20:16:37.069Z,6.26
2016-11-27T20:17:37.072Z,6.26
2016-11-27T20:18:37.088Z,6.26
2016-11-27T20:19:37.101Z,6.24
2016-11-27T20:20:37.106Z,6.27
2016-11-27T20:21:37.123Z,6.24
2016-11-27T20:22:37.138Z,6.26
2016-11-27T20:23:37.149Z,6.24
2016-11-27T20:24:37.255Z,6.17
2016-11-27T20:25:37.278Z,6.26
2016-11-27T20:26:37.586Z,6.26
2016-11-27T20:27:37.296Z,6.28
2016-11-27T20:28:37.302Z,6.19
2016-11-27T20:29:37.312Z,6.28
2016-11-27T20:30:37.321Z,6.2
2016-11-27T20:31:37.319Z,6.28
2016-11-27T20:32:37.328Z,6.27
2016-11-27T20:33:37.336Z,6.24
2016-11-27T20:34:37.350Z,6.24
2016-11-27T20:35:37.354Z,6.19
2016-11-27T20:36:37.354Z,6.2
2016-11-27T20:37:37.421Z,6.17
2016-11-27T20:38:37.433Z,6.17
2016-11-27T20:39:37.441Z,6.27
2016-11-27T20:40:37.436Z,6.26
2016-11-27T20:41:37.448Z,6.14
2016-11-27T20:42:37.456Z,6.26
2016-11-27T20:43:37.463Z,6.14
2016-11-27T20:44:37.475Z,6.17
2016-11-27T20:45:37.481Z,6.09
2016-11-27T20:46:37.482Z,6.16
2016-11-27T20:47:37.489Z,6.16
2016-11-27T20:48:37.496Z,6.12
2016-11-27T20:49:37.555Z,6.17
2016-11-27T20:50:37.544Z,6.12
2016-11-27T20:51:37.553Z,6.12
2016-11-27T20:52:37.562Z,6.16
2016-11-27T20:53:37.573Z,6.19
2016-11-27T20:54:37.579Z,6.11
2016-11-27T20:55:37.580Z,6.14
2016-11-27T20:56:37.599Z,6.16
2016-11-27T20:57:37.604Z,6.16
2016-11-27T20:58:37.618Z,6.16
2016-11-27T20:59:37.636Z,6.04
2016-11-27T21:00:37.650Z,6.14
2016-11-27T21:01:37.664Z,6.17
2016-11-27T21:02:37.670Z,6.04
2016-11-27T21:03:37.683Z,6.04
2016-11-27T21:04:37.699Z,6.17
2016-11-27T21:05:37.713Z,6.02
2016-11-27T21:06:37.721Z,6.05
2016-11-27T21:07:37.767Z,6.05
2016-11-27T21:08:37.751Z,6.08
2016-11-27T21:09:37.765Z,6.08
2016-11-27T21:10:37.801Z,5.99
2016-11-27T21:11:37.787Z,6.07
2016-11-27T21:12:37.920Z,6.09
2016-11-27T21:13:37.823Z,6.07
2016-11-27T21:14:37.828Z,6.04
2016-11-27T21:15:37.843Z,6.08
2016-11-27T21:16:37.863Z,6.01
2016-11-27T21:17:37.870Z,6.04
2016-11-27T21:18:37.889Z,6.09
2016-11-27T21:19:37.897Z,5.99
2016-11-27T21:20:37.914Z,5.99
2016-11-27T21:21:37.928Z,6.02
2016-11-27T21:22:37.948Z,6.05
2016-11-27T21:23:37.952Z,6.09
2016-11-27T21:24:37.968Z,5.99
2016-11-27T21:25:37.980Z,5.99
2016-11-27T21:26:37.994Z,5.97
2016-11-27T21:27:38.008Z,5.97
2016-11-27T21:28:38.026Z,6.02
2016-11-27T21:29:38.038Z,6.07
2016-11-27T21:30:38.043Z,5.98
2016-11-27T21:31:38.066Z,5.98
2016-11-27T21:32:38.077Z,5.94
2016-11-27T21:33:38.088Z,6.04
2016-11-27T21:34:38.099Z,6.08
2016-11-27T21:35:38.116Z,6.02
2016-11-27T21:36:38.129Z,6.04
2016-11-27T21:37:38.144Z,6.02
2016-11-27T21:38:38.160Z,6.01
2016-11-27T21:39:38.167Z,5.99
2016-11-27T21:40:38.183Z,6.02
2016-11-27T21:41:38.195Z,6.02
2016-11-27T21:42:38.211Z,6.09
2016-11-27T21:43:38.220Z,6.01
2016-11-27T21:44:38.234Z,6.02
2016-11-27T21:45:38.255Z,6.02
2016-11-27T21:46:38.324Z,6.02
2016-11-27T21:47:38.273Z,6.05
2016-11-27T21:48:38.284Z,6.02
2016-11-27T21:49:38.302Z,5.93
2016-11-27T21:50:38.314Z,5.98
2016-11-27T21:51:38.324Z,5.93
2016-11-27T21:52:38.339Z,6.02
2016-11-27T21:53:38.371Z,5.93
2016-11-27T21:54:38.364Z,5.98
2016-11-27T21:55:38.378Z,5.97
2016-11-27T21:56:38.386Z,6.05
2016-11-27T21:57:38.403Z,6.01
2016-11-27T21:58:38.415Z,5.91
2016-11-27T21:59:38.430Z,5.91
2016-11-27T22:00:38.441Z,5.94
2016-11-27T22:01:38.453Z,6.01
2016-11-27T22:02:38.464Z,5.98
2016-11-27T22:03:38.483Z,5.94
2016-11-27T22:04:38.494Z,5.87
2016-11-27T22:05:38.504Z,5.94
2016-11-27T22:06:38.522Z,5.9
2016-11-27T22:07:38.533Z,5.93
2016-11-27T22:08:38.543Z,5.89
2016-11-27T22:09:38.561Z,5.9
2016-11-27T22:10:38.577Z,5.98
2016-11-27T22:11:38.583Z,5.89
2016-11-27T22:12:38.608Z,5.91
2016-11-27T22:13:38.614Z,5.79
2016-11-27T22:14:38.625Z,5.97
2016-11-27T22:15:38.639Z,5.87
2016-11-27T22:16:38.652Z,5.9
2016-11-27T22:17:38.664Z,5.93
2016-11-27T22:18:38.678Z,5.9
2016-11-27T22:19:38.691Z,5.89
2016-11-27T22:20:38.705Z,5.86
2016-11-27T22:21:38.715Z,5.93
2016-11-27T22:22:38.729Z,5.89
2016-11-27T22:23:38.743Z,5.89
2016-11-27T22:24:38.757Z,5.86
2016-11-27T22:25:38.768Z,5.89
2016-11-27T22:26:38.782Z,5.87
2016-11-27T22:27:38.795Z,5.89
2016-11-27T22:28:39.118Z,5.91
2016-11-27T22:29:38.821Z,5.87
2016-11-27T22:30:38.836Z,5.89
2016-11-27T22:31:38.850Z,5.76
2016-11-27T22:32:38.860Z,5.9
2016-11-27T22:33:38.874Z,5.8
2016-11-27T22:34:38.892Z,5.82
2016-11-27T22:35:38.911Z,5.72
2016-11-27T22:36:38.918Z,5.79
2016-11-27T22:37:38.923Z,5.71
2016-11-27T22:38:38.940Z,5.72
2016-11-27T22:39:38.953Z,5.73
2016-11-27T22:40:38.995Z,5.83
2016-11-27T22:41:38.989Z,5.8
2016-11-27T22:42:39.000Z,5.8
2016-11-27T22:43:39.009Z,5.83
2016-11-27T22:44:39.016Z,5.82
2016-11-27T22:45:39.033Z,5.79
2016-11-27T22:46:39.040Z,5.86
2016-11-27T22:47:39.056Z,5.86
2016-11-27T22:48:39.081Z,5.82
2016-11-27T22:49:39.082Z,5.83
2016-11-27T22:50:39.092Z,5.8
2016-11-27T22:51:39.105Z,5.8
2016-11-27T22:52:39.122Z,5.8
2016-11-27T22:53:39.129Z,5.79
2016-11-27T22:54:39.144Z,5.76
2016-11-27T22:55:39.162Z,5.8
2016-11-27T22:56:39.173Z,5.76
2016-11-27T22:57:39.190Z,5.79
2016-11-27T22:58:39.200Z,5.76
2016-11-27T22:59:39.213Z,5.75
2016-11-27T23:00:39.227Z,5.82
2016-11-27T23:01:39.240Z,5.79
2016-11-27T23:02:39.258Z,5.73
2016-11-27T23:03:39.266Z,5.76
2016-11-27T23:04:39.284Z,5.79
2016-11-27T23:05:39.286Z,5.75
2016-11-27T23:06:39.298Z,5.75
2016-11-27T23:07:39.315Z,5.75
2016-11-27T23:08:39.329Z,5.72
2016-11-27T23:09:39.343Z,5.73
2016-11-27T23:10:39.358Z,5.73
2016-11-27T23:11:39.374Z,5.73
2016-11-27T23:12:39.407Z,5.68
2016-11-27T23:13:39.401Z,5.73
2016-11-27T23:14:39.408Z,5.75
2016-11-27T23:15:39.416Z,5.75
2016-11-27T23:16:39.440Z,5.71
2016-11-27T23:17:39.473Z,5.75
2016-11-27T23:18:39.466Z,5.73
2016-11-27T23:19:39.476Z,5.66
2016-11-27T23:20:39.494Z,5.73
2016-11-27T23:21:39.499Z,5.75
2016-11-27T23:22:39.515Z,5.73
2016-11-27T23:23:39.525Z,5.71
2016-11-27T23:24:39.535Z,5.69
2016-11-27T23:25:39.557Z,5.66
2016-11-27T23:26:39.564Z,5.73
2016-11-27T23:27:39.582Z,5.76
2016-11-27T23:28:39.588Z,5.61
2016-11-27T23:29:39.611Z,5.71
2016-11-27T23:30:39.615Z,5.69
2016-11-27T23:31:39.632Z,5.73
2016-11-27T23:32:39.639Z,5.64
2016-11-27T23:33:39.657Z,5.73
2016-11-27T23:34:39.674Z,5.72
2016-11-27T23:35:39.674Z,5.72
2016-11-27T23:36:39.695Z,5.73
2016-11-27T23:37:39.698Z,5.69
2016-11-27T23:38:39.723Z,5.71
2016-11-27T23:39:39.730Z,5.65